createdAt,value
2023-04-11T00:00:00.411Z,100210
2023-04-11T00:01:00.451Z,100210
2023-04-11T00:02:00.455Z,100210
2023-04-11T00:03:00.899Z,100210
2023-04-11T00:04:01.099Z,100200
2023-04-11T00:05:00.778Z,100200
2023-04-11T00:06:00.405Z,100200
2023-04-11T00:07:00.401Z,100200
2023-04-11T00:08:00.449Z,100190
2023-04-11T00:09:00.562Z,100190
2023-04-11T00:10:00.634Z,100190
2023-04-11T00:11:00.393Z,100190
2023-04-11T00:12:00.703Z,100190
2023-04-11T00:13:00.422Z,100190
2023-04-11T00:14:00.468Z,100200
2023-04-11T00:15:00.461Z,100190
2023-04-11T00:16:00.443Z,100180
2023-04-11T00:17:00.446Z,100180
2023-04-11T00:18:00.590Z,100180
2023-04-11T00:19:00.469Z,100180
2023-04-11T00:20:00.404Z,100180
2023-04-11T00:21:03.021Z,100180
2023-04-11T00:22:00.428Z,100180
2023-04-11T00:23:00.461Z,100180
2023-04-11T00:24:00.404Z,100180
2023-04-11T00:25:00.409Z,100180
2023-04-11T00:26:00.474Z,100180
2023-04-11T00:27:00.676Z,100180
2023-04-11T00:28:00.414Z,100180
2023-04-11T00:29:00.540Z,100180
2023-04-11T00:30:00.537Z,100180
2023-04-11T00:31:00.991Z,100180
2023-04-11T00:32:00.500Z,100180
2023-04-11T00:33:00.439Z,100170
2023-04-11T00:34:00.413Z,100170
2023-04-11T00:35:00.447Z,100170
2023-04-11T00:36:00.461Z,100170
2023-04-11T00:37:00.593Z,100170
2023-04-11T00:38:00.399Z,100170
2023-04-11T00:39:00.434Z,100160
2023-04-11T00:40:00.920Z,100160
2023-04-11T00:41:00.625Z,100160
2023-04-11T00:42:05.962Z,100160
2023-04-11T00:43:00.413Z,100160
2023-04-11T00:44:00.405Z,100160
2023-04-11T00:45:00.557Z,100160
2023-04-11T00:46:00.492Z,100160
2023-04-11T00:47:02.075Z,100150
2023-04-11T00:48:00.645Z,100150
2023-04-11T00:49:00.577Z,100150
2023-04-11T00:50:00.987Z,100150
2023-04-11T00:51:00.787Z,100150
2023-04-11T00:52:01.387Z,100150
2023-04-11T00:53:00.457Z,100150
2023-04-11T00:54:00.541Z,100150
2023-04-11T00:55:02.644Z,100150
2023-04-11T00:56:00.467Z,100150
2023-04-11T00:57:03.008Z,100140
2023-04-11T00:58:00.668Z,100140
2023-04-11T00:59:00.462Z,100140
2023-04-11T01:00:00.896Z,100140
2023-04-11T01:01:00.491Z,100140
2023-04-11T01:02:00.654Z,100140
2023-04-11T01:03:01.060Z,100130
2023-04-11T01:04:01.496Z,100130
2023-04-11T01:05:00.435Z,100130
2023-04-11T01:06:00.482Z,100130
2023-04-11T01:07:03.614Z,100120
2023-04-11T01:08:01.516Z,100120
2023-04-11T01:09:00.734Z,100120
2023-04-11T01:10:01.396Z,100120
2023-04-11T01:11:01.905Z,100120
2023-04-11T01:12:02.079Z,100130
2023-04-11T01:13:00.709Z,100120
2023-04-11T01:14:01.107Z,100130
2023-04-11T01:15:00.819Z,100130
2023-04-11T01:16:01.228Z,100130
2023-04-11T01:17:00.983Z,100130
2023-04-11T01:18:01.018Z,100130
2023-04-11T01:19:00.504Z,100130
2023-04-11T01:20:00.794Z,100120
2023-04-11T01:21:00.650Z,100120
2023-04-11T01:22:00.452Z,100130
2023-04-11T01:23:01.108Z,100130
2023-04-11T01:24:00.574Z,100130
2023-04-11T01:25:00.469Z,100120
2023-04-11T01:26:00.425Z,100120
2023-04-11T01:27:01.192Z,100120
2023-04-11T01:28:00.471Z,100120
2023-04-11T01:29:01.240Z,100110
2023-04-11T01:30:00.474Z,100110
2023-04-11T01:31:00.456Z,100110
2023-04-11T01:32:00.503Z,100110
2023-04-11T01:33:00.486Z,100110
2023-04-11T01:34:01.451Z,100100
2023-04-11T01:35:04.062Z,100100
2023-04-11T01:36:00.586Z,100100
2023-04-11T01:37:01.143Z,100100
2023-04-11T01:38:00.548Z,100100
2023-04-11T01:39:00.493Z,100100
2023-04-11T01:40:00.809Z,100100
2023-04-11T01:41:01.456Z,100090
2023-04-11T01:42:01.400Z,100090
2023-04-11T01:43:00.718Z,100090
2023-04-11T01:44:02.225Z,100090
2023-04-11T01:45:01.624Z,100080
2023-04-11T01:46:00.658Z,100080
2023-04-11T01:47:00.669Z,100080
2023-04-11T01:48:05.435Z,100080
2023-04-11T01:49:00.544Z,100080
2023-04-11T01:50:00.530Z,100070
2023-04-11T01:51:00.463Z,100070
2023-04-11T01:52:00.404Z,100070
2023-04-11T01:53:00.510Z,100070
2023-04-11T01:54:00.471Z,100070
2023-04-11T01:55:00.452Z,100060
2023-04-11T01:56:00.415Z,100060
2023-04-11T01:57:00.458Z,100060
2023-04-11T01:58:00.430Z,100060
2023-04-11T01:59:00.483Z,100050
2023-04-11T02:00:00.450Z,100060
2023-04-11T02:01:00.481Z,100050
2023-04-11T02:02:00.517Z,100050
2023-04-11T02:03:00.499Z,100060
2023-04-11T02:04:00.477Z,100060
2023-04-11T02:05:00.390Z,100060
2023-04-11T02:06:00.415Z,100050
2023-04-11T02:07:00.418Z,100060
2023-04-11T02:08:00.416Z,100060
2023-04-11T02:09:00.416Z,100050
2023-04-11T02:10:00.404Z,100050
2023-04-11T02:11:00.510Z,100050
2023-04-11T02:12:00.417Z,100050
2023-04-11T02:13:00.418Z,100050
2023-04-11T02:14:01.067Z,100040
2023-04-11T02:15:00.472Z,100040
2023-04-11T02:16:09.561Z,100040
2023-04-11T02:17:00.426Z,100040
2023-04-11T02:18:00.547Z,100030
2023-04-11T02:19:00.402Z,100030
2023-04-11T02:20:00.444Z,100030
2023-04-11T02:21:00.420Z,100030
2023-04-11T02:22:00.849Z,100020
2023-04-11T02:23:00.417Z,100020
2023-04-11T02:24:00.924Z,100020
2023-04-11T02:25:00.412Z,100020
2023-04-11T02:26:00.777Z,100010
2023-04-11T02:27:00.817Z,100010
2023-04-11T02:28:00.396Z,100010
2023-04-11T02:29:00.414Z,100010
2023-04-11T02:30:00.454Z,100010
2023-04-11T02:31:01.735Z,100000
2023-04-11T02:32:00.819Z,100000
2023-04-11T02:33:00.487Z,100000
2023-04-11T02:34:00.733Z,100000
2023-04-11T02:35:00.956Z,99990
2023-04-11T02:36:00.444Z,99990
2023-04-11T02:37:00.442Z,99990
2023-04-11T02:38:00.436Z,99990
2023-04-11T02:39:00.399Z,100000
2023-04-11T02:40:01.300Z,100000
2023-04-11T02:41:00.445Z,100000
2023-04-11T02:42:00.417Z,100000
2023-04-11T02:43:00.467Z,100010
2023-04-11T02:44:00.415Z,100000
2023-04-11T02:45:00.620Z,100000
2023-04-11T02:46:11.510Z,100000
2023-04-11T02:47:00.518Z,100010
2023-04-11T02:48:00.552Z,100010
2023-04-11T02:49:00.421Z,100010
2023-04-11T02:50:00.417Z,100010
2023-04-11T02:51:00.413Z,100010
2023-04-11T02:52:00.409Z,100010
2023-04-11T02:53:00.442Z,100020
2023-04-11T02:54:00.442Z,100010
2023-04-11T02:55:00.457Z,100010
2023-04-11T02:56:00.436Z,100010
2023-04-11T02:57:00.626Z,100000
2023-04-11T02:58:00.426Z,100000
2023-04-11T02:59:00.414Z,100000
2023-04-11T03:00:00.556Z,100000
2023-04-11T03:01:00.406Z,99990
2023-04-11T03:02:00.969Z,99990
2023-04-11T03:03:00.470Z,99980
2023-04-11T03:04:00.552Z,99980
2023-04-11T03:05:00.812Z,99980
2023-04-11T03:06:00.433Z,99980
2023-04-11T03:07:00.408Z,99980
2023-04-11T03:08:00.428Z,99980
2023-04-11T03:09:00.506Z,99980
2023-04-11T03:10:00.415Z,99980
2023-04-11T03:11:01.926Z,99980
2023-04-11T03:12:00.397Z,99980
2023-04-11T03:13:00.478Z,99980
2023-04-11T03:14:00.553Z,99980
2023-04-11T03:15:00.530Z,99970
2023-04-11T03:16:00.474Z,99970
2023-04-11T03:17:00.592Z,99970
2023-04-11T03:18:00.423Z,99970
2023-04-11T03:19:00.515Z,99970
2023-04-11T03:20:00.546Z,99970
2023-04-11T03:21:00.427Z,99970
2023-04-11T03:22:00.442Z,99960
2023-04-11T03:23:00.444Z,99960
2023-04-11T03:24:00.420Z,99960
2023-04-11T03:25:00.426Z,99960
2023-04-11T03:26:00.445Z,99960
2023-04-11T03:27:00.405Z,99960
2023-04-11T03:28:00.434Z,99960
2023-04-11T03:29:00.425Z,99950
2023-04-11T03:30:00.502Z,99950
2023-04-11T03:31:00.537Z,99950
2023-04-11T03:32:00.530Z,99950
2023-04-11T03:33:00.513Z,99950
2023-04-11T03:34:00.446Z,99950
2023-04-11T03:35:00.589Z,99940
2023-04-11T03:36:00.467Z,99940
2023-04-11T03:37:00.435Z,99940
2023-04-11T03:38:00.432Z,99940
2023-04-11T03:39:00.420Z,99940
2023-04-11T03:40:00.411Z,99950
2023-04-11T03:41:00.475Z,99940
2023-04-11T03:42:00.441Z,99940
2023-04-11T03:43:02.353Z,99940
2023-04-11T03:44:00.571Z,99940
2023-04-11T03:45:00.488Z,99940
2023-04-11T03:46:00.412Z,99930
2023-04-11T03:47:00.485Z,99930
2023-04-11T03:48:00.478Z,99920
2023-04-11T03:49:00.438Z,99920
2023-04-11T03:50:00.427Z,99920
2023-04-11T03:51:00.464Z,99920
2023-04-11T03:52:00.417Z,99920
2023-04-11T03:53:00.441Z,99920
2023-04-11T03:54:00.443Z,99920
2023-04-11T03:55:00.846Z,99920
2023-04-11T03:56:00.492Z,99910
2023-04-11T03:57:00.417Z,99910
2023-04-11T03:58:00.430Z,99920
2023-04-11T03:59:00.446Z,99920
2023-04-11T04:00:00.553Z,99920
2023-04-11T04:01:00.458Z,99910
2023-04-11T04:02:00.488Z,99910
2023-04-11T04:03:00.553Z,99910
2023-04-11T04:04:00.944Z,99910
2023-04-11T04:05:00.487Z,99910
2023-04-11T04:06:00.419Z,99910
2023-04-11T04:07:00.425Z,99910
2023-04-11T04:08:00.406Z,99900
2023-04-11T04:09:00.422Z,99910
2023-04-11T04:10:00.517Z,99900
2023-04-11T04:11:00.417Z,99900
2023-04-11T04:12:00.436Z,99900
2023-04-11T04:13:00.468Z,99890
2023-04-11T04:14:00.396Z,99890
2023-04-11T04:15:00.489Z,99890
2023-04-11T04:16:03.283Z,99890
2023-04-11T04:17:00.448Z,99890
2023-04-11T04:18:00.471Z,99890
2023-04-11T04:19:00.409Z,99890
2023-04-11T04:20:00.605Z,99890
2023-04-11T04:21:00.414Z,99890
2023-04-11T04:22:00.438Z,99890
2023-04-11T04:23:00.811Z,99890
2023-04-11T04:24:00.408Z,99890
2023-04-11T04:25:00.662Z,99890
2023-04-11T04:26:00.648Z,99890
2023-04-11T04:27:00.430Z,99890
2023-04-11T04:28:00.424Z,99900
2023-04-11T04:29:00.448Z,99900
2023-04-11T04:30:04.565Z,99900
2023-04-11T04:31:00.422Z,99900
2023-04-11T04:32:00.492Z,99910
2023-04-11T04:33:00.490Z,99910
2023-04-11T04:34:02.492Z,99910
2023-04-11T04:35:00.454Z,99920
2023-04-11T04:36:00.513Z,99910
2023-04-11T04:37:00.401Z,99910
2023-04-11T04:38:00.421Z,99910
2023-04-11T04:39:00.423Z,99910
2023-04-11T04:40:00.412Z,99900
2023-04-11T04:41:00.404Z,99900
2023-04-11T04:42:00.406Z,99890
2023-04-11T04:43:00.402Z,99890
2023-04-11T04:44:00.616Z,99890
2023-04-11T04:45:01.047Z,99880
2023-04-11T04:46:00.470Z,99880
2023-04-11T04:47:00.445Z,99880
2023-04-11T04:48:00.425Z,99870
2023-04-11T04:49:01.636Z,99870
2023-04-11T04:50:00.486Z,99880
2023-04-11T04:51:00.394Z,99880
2023-04-11T04:52:00.422Z,99880
2023-04-11T04:53:00.417Z,99880
2023-04-11T04:54:00.440Z,99880
2023-04-11T04:55:00.696Z,99880
2023-04-11T04:56:01.113Z,99870
2023-04-11T04:57:00.451Z,99880
2023-04-11T04:58:00.427Z,99880
2023-04-11T04:59:00.498Z,99880
2023-04-11T05:00:00.425Z,99880
2023-04-11T05:01:00.458Z,99880
2023-04-11T05:02:00.465Z,99880
2023-04-11T05:03:00.705Z,99880
2023-04-11T05:04:01.372Z,99870
2023-04-11T05:05:00.407Z,99870
2023-04-11T05:06:00.431Z,99880
2023-04-11T05:07:00.443Z,99880
2023-04-11T05:08:00.467Z,99870
2023-04-11T05:09:01.348Z,99870
2023-04-11T05:10:01.990Z,99870
2023-04-11T05:11:00.416Z,99870
2023-04-11T05:12:00.437Z,99870
2023-04-11T05:13:00.410Z,99860
2023-04-11T05:14:00.502Z,99860
2023-04-11T05:15:00.396Z,99860
2023-04-11T05:16:00.400Z,99860
2023-04-11T05:17:00.516Z,99860
2023-04-11T05:18:00.479Z,99850
2023-04-11T05:19:00.435Z,99850
2023-04-11T05:20:00.467Z,99850
2023-04-11T05:21:00.528Z,99850
2023-04-11T05:22:00.399Z,99850
2023-04-11T05:23:00.408Z,99840
2023-04-11T05:24:00.389Z,99840
2023-04-11T05:25:00.406Z,99830
2023-04-11T05:26:00.924Z,99830
2023-04-11T05:27:00.432Z,99820
2023-04-11T05:28:00.411Z,99820
2023-04-11T05:29:00.624Z,99820
2023-04-11T05:30:00.476Z,99820
2023-04-11T05:31:00.580Z,99830
2023-04-11T05:32:00.437Z,99820
2023-04-11T05:33:00.407Z,99820
2023-04-11T05:34:01.248Z,99820
2023-04-11T05:35:00.430Z,99820
2023-04-11T05:36:00.477Z,99810
2023-04-11T05:37:00.409Z,99810
2023-04-11T05:38:00.434Z,99810
2023-04-11T05:39:00.425Z,99800
2023-04-11T05:40:00.532Z,99790
2023-04-11T05:41:00.453Z,99790
2023-04-11T05:42:00.403Z,99780
2023-04-11T05:43:00.422Z,99780
2023-04-11T05:44:00.433Z,99780
2023-04-11T05:45:00.408Z,99780
2023-04-11T05:46:00.681Z,99780
2023-04-11T05:47:00.425Z,99770
2023-04-11T05:48:00.446Z,99770
2023-04-11T05:49:00.400Z,99770
2023-04-11T05:50:00.457Z,99770
2023-04-11T05:51:00.913Z,99770
2023-04-11T05:52:00.418Z,99760
2023-04-11T05:53:01.184Z,99760
2023-04-11T05:54:00.427Z,99760
2023-04-11T05:55:00.414Z,99750
2023-04-11T05:56:00.441Z,99760
2023-04-11T05:57:01.299Z,99750
2023-04-11T05:58:00.454Z,99750
2023-04-11T05:59:00.408Z,99750
2023-04-11T06:00:00.515Z,99740
2023-04-11T06:01:00.493Z,99750
2023-04-11T06:02:00.623Z,99740
2023-04-11T06:03:00.841Z,99740
2023-04-11T06:04:00.837Z,99740
2023-04-11T06:05:00.474Z,99740
2023-04-11T06:06:00.445Z,99730
2023-04-11T06:07:00.645Z,99740
2023-04-11T06:08:02.099Z,99730
2023-04-11T06:09:00.432Z,99730
2023-04-11T06:10:00.478Z,99730
2023-04-11T06:11:00.395Z,99720
2023-04-11T06:13:00.811Z,99720
2023-04-11T06:14:00.530Z,99720
2023-04-11T06:15:00.732Z,99720
2023-04-11T06:16:01.058Z,99720
2023-04-11T06:17:00.455Z,99720
2023-04-11T06:18:00.457Z,99720
2023-04-11T06:19:00.428Z,99720
2023-04-11T06:20:00.408Z,99720
2023-04-11T06:21:00.466Z,99720
2023-04-11T06:22:00.407Z,99720
2023-04-11T06:23:00.450Z,99720
2023-04-11T06:24:04.518Z,99720
2023-04-11T06:25:00.513Z,99720
2023-04-11T06:26:00.394Z,99720
2023-04-11T06:27:00.410Z,99720
2023-04-11T06:28:00.416Z,99720
2023-04-11T06:29:03.878Z,99720
2023-04-11T06:30:00.478Z,99730
2023-04-11T06:31:00.424Z,99720
2023-04-11T06:32:00.540Z,99720
2023-04-11T06:33:00.555Z,99720
2023-04-11T06:34:00.490Z,99720
2023-04-11T06:35:00.530Z,99720
2023-04-11T06:36:00.406Z,99720
2023-04-11T06:37:00.406Z,99710
2023-04-11T06:38:00.406Z,99710
2023-04-11T06:39:00.401Z,99710
2023-04-11T06:40:00.996Z,99700
2023-04-11T06:41:00.400Z,99700
2023-04-11T06:42:00.806Z,99700
2023-04-11T06:43:00.442Z,99700
2023-04-11T06:44:00.503Z,99710
2023-04-11T06:45:00.528Z,99710
2023-04-11T06:46:00.444Z,99710
2023-04-11T06:47:00.678Z,99710
2023-04-11T06:48:00.475Z,99700
2023-04-11T06:49:00.481Z,99700
2023-04-11T06:50:00.518Z,99700
2023-04-11T06:51:00.396Z,99700
2023-04-11T06:52:00.450Z,99690
2023-04-11T06:53:00.428Z,99690
2023-04-11T06:54:01.022Z,99690
2023-04-11T06:55:00.422Z,99690
2023-04-11T06:56:00.423Z,99690
2023-04-11T06:57:01.021Z,99690
2023-04-11T06:58:00.457Z,99690
2023-04-11T06:59:00.428Z,99680
2023-04-11T07:00:00.459Z,99680
2023-04-11T07:01:00.403Z,99690
2023-04-11T07:02:00.611Z,99680
2023-04-11T07:03:00.749Z,99680
2023-04-11T07:04:01.194Z,99680
2023-04-11T07:05:00.932Z,99680
2023-04-11T07:06:00.448Z,99680
2023-04-11T07:07:00.413Z,99680
2023-04-11T07:08:00.667Z,99680
2023-04-11T07:09:01.743Z,99680
2023-04-11T07:10:00.434Z,99680
2023-04-11T07:11:00.455Z,99680
2023-04-11T07:12:00.408Z,99670
2023-04-11T07:13:00.446Z,99670
2023-04-11T07:14:01.336Z,99670
2023-04-11T07:15:01.666Z,99670
2023-04-11T07:16:00.463Z,99670
2023-04-11T07:17:00.425Z,99670
2023-04-11T07:18:00.647Z,99670
2023-04-11T07:19:00.474Z,99670
2023-04-11T07:20:00.455Z,99670
2023-04-11T07:21:00.409Z,99670
2023-04-11T07:22:00.577Z,99680
2023-04-11T07:23:00.505Z,99680
2023-04-11T07:24:00.538Z,99680
2023-04-11T07:25:00.408Z,99680
2023-04-11T07:26:00.445Z,99680
2023-04-11T07:27:00.825Z,99680
2023-04-11T07:28:00.426Z,99670
2023-04-11T07:29:00.430Z,99670
2023-04-11T07:30:00.687Z,99660
2023-04-11T07:31:00.431Z,99660
2023-04-11T07:32:00.635Z,99660
2023-04-11T07:33:00.673Z,99660
2023-04-11T07:34:00.463Z,99660
2023-04-11T07:35:00.460Z,99670
2023-04-11T07:36:00.488Z,99670
2023-04-11T07:37:00.432Z,99660
2023-04-11T07:38:00.511Z,99660
2023-04-11T07:39:00.766Z,99660
2023-04-11T07:40:00.470Z,99660
2023-04-11T07:41:01.828Z,99660
2023-04-11T07:42:00.409Z,99660
2023-04-11T07:43:00.440Z,99660
2023-04-11T07:44:00.452Z,99660
2023-04-11T07:45:00.467Z,99660
2023-04-11T07:46:00.699Z,99660
2023-04-11T07:47:00.485Z,99650
2023-04-11T07:48:00.485Z,99650
2023-04-11T07:49:00.504Z,99640
2023-04-11T07:50:00.442Z,99640
2023-04-11T07:51:00.583Z,99640
2023-04-11T07:52:00.459Z,99630
2023-04-11T07:53:00.401Z,99630
2023-04-11T07:54:00.431Z,99630
2023-04-11T07:55:00.498Z,99630
2023-04-11T07:56:00.428Z,99630
2023-04-11T07:57:00.397Z,99620
2023-04-11T07:58:00.402Z,99610
2023-04-11T07:59:00.409Z,99610
2023-04-11T08:00:00.442Z,99610
2023-04-11T08:01:00.498Z,99610
2023-04-11T08:02:01.041Z,99610
2023-04-11T08:03:09.552Z,99610
2023-04-11T08:04:01.000Z,99610
2023-04-11T08:05:00.614Z,99620
2023-04-11T08:06:00.400Z,99610
2023-04-11T08:07:00.420Z,99610
2023-04-11T08:08:01.843Z,99620
2023-04-11T08:09:00.466Z,99610
2023-04-11T08:10:00.390Z,99620
2023-04-11T08:11:00.395Z,99610
2023-04-11T08:12:00.429Z,99610
2023-04-11T08:13:00.471Z,99610
2023-04-11T08:14:00.415Z,99610
2023-04-11T08:15:00.417Z,99610
2023-04-11T08:16:02.819Z,99610
2023-04-11T08:17:00.531Z,99600
2023-04-11T08:18:00.427Z,99600
2023-04-11T08:19:00.422Z,99590
2023-04-11T08:20:02.319Z,99590
2023-04-11T08:21:00.971Z,99590
2023-04-11T08:22:00.398Z,99590
2023-04-11T08:23:00.411Z,99600
2023-04-11T08:24:00.433Z,99600
2023-04-11T08:25:00.454Z,99590
2023-04-11T08:26:00.408Z,99590
2023-04-11T08:27:00.399Z,99590
2023-04-11T08:28:00.472Z,99590
2023-04-11T08:29:00.420Z,99580
2023-04-11T08:30:00.763Z,99580
2023-04-11T08:31:00.544Z,99570
2023-04-11T08:32:00.459Z,99570
2023-04-11T08:33:00.461Z,99570
2023-04-11T08:34:01.469Z,99580
2023-04-11T08:35:00.875Z,99580
2023-04-11T08:36:00.523Z,99580
2023-04-11T08:37:00.423Z,99580
2023-04-11T08:38:00.401Z,99580
2023-04-11T08:39:00.416Z,99570
2023-04-11T08:40:00.476Z,99560
2023-04-11T08:41:00.490Z,99560
2023-04-11T08:42:00.417Z,99560
2023-04-11T08:43:00.753Z,99550
2023-04-11T08:44:00.449Z,99550
2023-04-11T08:45:03.201Z,99550
2023-04-11T08:46:01.401Z,99550
2023-04-11T08:47:00.526Z,99550
2023-04-11T08:48:00.474Z,99550
2023-04-11T08:49:00.433Z,99550
2023-04-11T08:50:00.542Z,99560
2023-04-11T08:51:00.725Z,99550
2023-04-11T08:52:01.227Z,99550
2023-04-11T08:53:01.542Z,99550
2023-04-11T08:54:04.780Z,99550
2023-04-11T08:55:00.461Z,99550
2023-04-11T08:56:00.404Z,99550
2023-04-11T08:57:00.410Z,99550
2023-04-11T08:58:00.460Z,99550
2023-04-11T08:59:00.988Z,99550
2023-04-11T09:00:03.022Z,99550
2023-04-11T09:01:20.404Z,99550
2023-04-11T09:02:08.534Z,99550
2023-04-11T09:03:03.270Z,99540
2023-04-11T09:04:02.054Z,99540
2023-04-11T09:05:00.510Z,99540
2023-04-11T09:06:08.373Z,99540
2023-04-11T09:07:01.315Z,99540
2023-04-11T09:08:02.374Z,99540
2023-04-11T09:09:03.134Z,99540
2023-04-11T09:10:18.073Z,99530
2023-04-11T09:11:00.549Z,99530
2023-04-11T09:12:00.430Z,99520
2023-04-11T09:13:10.654Z,99520
2023-04-11T09:14:09.705Z,99520
2023-04-11T09:15:20.324Z,99530
2023-04-11T09:16:09.278Z,99530
2023-04-11T09:17:03.378Z,99530
2023-04-11T09:18:01.232Z,99530
2023-04-11T09:19:00.563Z,99530
2023-04-11T09:20:18.617Z,99530
2023-04-11T09:21:01.985Z,99530
2023-04-11T09:22:02.471Z,99520
2023-04-11T09:23:00.518Z,99530
2023-04-11T09:24:14.082Z,99530
2023-04-11T09:25:01.679Z,99520
2023-04-11T09:26:00.473Z,99520
2023-04-11T09:27:11.421Z,99520
2023-04-11T09:28:09.120Z,99510
2023-04-11T09:29:00.428Z,99510
2023-04-11T09:30:01.018Z,99510
2023-04-11T09:31:00.508Z,99500
2023-04-11T09:32:00.461Z,99500
2023-04-11T09:33:18.748Z,99500
2023-04-11T09:34:00.681Z,99500
2023-04-11T09:35:11.388Z,99500
2023-04-11T09:36:00.639Z,99500
2023-04-11T09:37:00.493Z,99500
2023-04-11T09:38:00.428Z,99490
2023-04-11T09:39:18.255Z,99480
2023-04-11T09:40:00.479Z,99480
2023-04-11T09:41:02.252Z,99480
2023-04-11T09:42:00.495Z,99480
2023-04-11T09:43:02.300Z,99480
2023-04-11T09:44:01.496Z,99480
2023-04-11T09:45:00.925Z,99480
2023-04-11T09:46:08.996Z,99480
2023-04-11T09:47:00.550Z,99470
2023-04-11T09:48:00.453Z,99470
2023-04-11T09:49:00.451Z,99470
2023-04-11T09:50:01.031Z,99460
2023-04-11T09:51:02.953Z,99460
2023-04-11T09:52:00.709Z,99470
2023-04-11T09:53:00.768Z,99460
2023-04-11T09:54:01.347Z,99460
2023-04-11T09:55:02.031Z,99460
2023-04-11T09:56:00.772Z,99470
2023-04-11T09:57:01.927Z,99460
2023-04-11T09:58:01.591Z,99460
2023-04-11T09:59:01.689Z,99470
2023-04-11T10:00:01.259Z,99470
2023-04-11T10:01:00.681Z,99470
2023-04-11T10:02:00.578Z,99470
2023-04-11T10:03:00.599Z,99470
2023-04-11T10:04:00.665Z,99470
2023-04-11T10:05:00.578Z,99480
2023-04-11T10:06:05.431Z,99480
2023-04-11T10:07:01.393Z,99470
2023-04-11T10:08:05.127Z,99480
2023-04-11T10:09:10.423Z,99480
2023-04-11T10:10:01.033Z,99480
2023-04-11T10:11:06.683Z,99480
2023-04-11T10:12:01.415Z,99480
2023-04-11T10:13:00.540Z,99480
2023-04-11T10:14:00.493Z,99480
2023-04-11T10:15:05.687Z,99480
2023-04-11T10:16:11.730Z,99480
2023-04-11T10:17:11.265Z,99480
2023-04-11T10:18:09.479Z,99480
2023-04-11T10:19:00.426Z,99480
2023-04-11T10:20:00.410Z,99480
2023-04-11T10:21:00.756Z,99490
2023-04-11T10:22:00.456Z,99480
2023-04-11T10:23:00.896Z,99490
2023-04-11T10:24:09.384Z,99490
2023-04-11T10:25:14.014Z,99480
2023-04-11T10:26:00.450Z,99500
2023-04-11T10:27:02.000Z,99490
2023-04-11T10:28:00.415Z,99500
2023-04-11T10:29:00.413Z,99500
2023-04-11T10:30:00.404Z,99490
2023-04-11T10:31:02.214Z,99500
2023-04-11T10:32:07.804Z,99500
2023-04-11T10:33:11.288Z,99500
2023-04-11T10:34:11.257Z,99500
2023-04-11T10:35:00.395Z,99500
2023-04-11T10:36:09.444Z,99490
2023-04-11T10:37:02.323Z,99500
2023-04-11T10:38:00.471Z,99500
2023-04-11T10:39:00.425Z,99500
2023-04-11T10:40:01.379Z,99500
2023-04-11T10:41:20.319Z,99500
2023-04-11T10:42:20.323Z,99500
2023-04-11T10:43:20.367Z,99500
2023-04-11T10:44:12.583Z,99500
2023-04-11T10:45:20.324Z,99500
2023-04-11T10:46:20.338Z,99500
2023-04-11T10:47:00.580Z,99500
2023-04-11T10:48:01.866Z,99500
2023-04-11T10:49:02.856Z,99500
2023-04-11T10:50:00.538Z,99490
2023-04-11T10:51:20.320Z,99500
2023-04-11T10:52:18.380Z,99500
2023-04-11T10:53:01.879Z,99500
2023-04-11T10:54:00.954Z,99500
2023-04-11T10:55:14.426Z,99500
2023-04-11T10:56:00.463Z,99500
2023-04-11T10:57:00.457Z,99500
2023-04-11T10:58:08.902Z,99500
2023-04-11T10:59:00.420Z,99500
2023-04-11T11:00:02.104Z,99510
2023-04-11T11:01:21.118Z,99510
2023-04-11T11:02:01.588Z,99510
2023-04-11T11:03:00.949Z,99510
2023-04-11T11:04:00.688Z,99510
2023-04-11T11:05:00.722Z,99510
2023-04-11T11:06:03.191Z,99510
2023-04-11T11:07:02.508Z,99520
2023-04-11T11:08:00.460Z,99520
2023-04-11T11:09:19.135Z,99520
2023-04-11T11:10:00.615Z,99520
2023-04-11T11:11:02.722Z,99520
2023-04-11T11:12:08.687Z,99520
2023-04-11T11:13:00.407Z,99520
2023-04-11T11:14:00.400Z,99520
2023-04-11T11:15:11.937Z,99520
2023-04-11T11:16:00.466Z,99530
2023-04-11T11:17:00.867Z,99520
2023-04-11T11:18:00.531Z,99530
2023-04-11T11:19:00.477Z,99530
2023-04-11T11:20:00.592Z,99530
2023-04-11T11:21:00.641Z,99530
2023-04-11T11:22:01.084Z,99540
2023-04-11T11:23:02.038Z,99540
2023-04-11T11:24:01.946Z,99550
2023-04-11T11:25:07.892Z,99560
2023-04-11T11:26:00.414Z,99560
2023-04-11T11:27:00.444Z,99570
2023-04-11T11:28:04.161Z,99560
2023-04-11T11:29:00.446Z,99570
2023-04-11T11:30:10.617Z,99570
2023-04-11T11:31:00.445Z,99570
2023-04-11T11:32:01.318Z,99570
2023-04-11T11:33:13.601Z,99570
2023-04-11T11:34:21.332Z,99570
2023-04-11T11:35:11.906Z,99570
2023-04-11T11:36:03.040Z,99560
2023-04-11T11:37:01.892Z,99570
2023-04-11T11:38:00.485Z,99570
2023-04-11T11:39:00.580Z,99570
2023-04-11T11:40:00.561Z,99570
2023-04-11T11:41:01.250Z,99580
2023-04-11T11:42:00.695Z,99580
2023-04-11T11:43:00.483Z,99570
2023-04-11T11:44:02.081Z,99580
2023-04-11T11:45:20.348Z,99570
2023-04-11T11:46:12.297Z,99570
2023-04-11T11:47:09.688Z,99580
2023-04-11T11:48:00.441Z,99570
2023-04-11T11:49:02.651Z,99570
2023-04-11T11:50:00.416Z,99580
2023-04-11T11:51:00.423Z,99590
2023-04-11T11:52:00.410Z,99590
2023-04-11T11:53:11.522Z,99590
2023-04-11T11:54:06.329Z,99590
2023-04-11T11:55:02.235Z,99590
2023-04-11T11:56:11.407Z,99590
2023-04-11T11:57:00.497Z,99590
2023-04-11T11:58:01.167Z,99600
2023-04-11T11:59:00.511Z,99600
2023-04-11T12:00:02.125Z,99600
2023-04-11T12:01:00.440Z,99600
2023-04-11T12:02:01.419Z,99600
2023-04-11T12:03:01.220Z,99600
2023-04-11T12:04:01.507Z,99600
2023-04-11T12:05:01.902Z,99610
2023-04-11T12:06:00.446Z,99610
2023-04-11T12:07:09.478Z,99610
2023-04-11T12:08:03.434Z,99610
2023-04-11T12:09:01.495Z,99610
2023-04-11T12:10:05.826Z,99610
2023-04-11T12:11:00.426Z,99610
2023-04-11T12:12:00.497Z,99610
2023-04-11T12:13:00.427Z,99610
2023-04-11T12:14:00.415Z,99610
2023-04-11T12:15:01.405Z,99600
2023-04-11T12:16:00.678Z,99600
2023-04-11T12:17:00.441Z,99610
2023-04-11T12:18:00.509Z,99610
2023-04-11T12:19:02.769Z,99620
2023-04-11T12:20:00.974Z,99620
2023-04-11T12:21:00.426Z,99620
2023-04-11T12:22:00.413Z,99620
2023-04-11T12:23:00.420Z,99620
2023-04-11T12:24:00.432Z,99620
2023-04-11T12:25:06.155Z,99630
2023-04-11T12:26:00.397Z,99630
2023-04-11T12:27:07.109Z,99630
2023-04-11T12:28:00.444Z,99630
2023-04-11T12:29:00.431Z,99620
2023-04-11T12:30:00.481Z,99620
2023-04-11T12:31:00.469Z,99620
2023-04-11T12:32:00.401Z,99620
2023-04-11T12:33:00.438Z,99610
2023-04-11T12:34:00.412Z,99610
2023-04-11T12:35:01.771Z,99610
2023-04-11T12:36:00.405Z,99610
2023-04-11T12:37:00.427Z,99610
2023-04-11T12:38:00.445Z,99610
2023-04-11T12:39:00.406Z,99610
2023-04-11T12:40:01.000Z,99600
2023-04-11T12:41:26.255Z,99600
2023-04-11T12:42:00.401Z,99600
2023-04-11T12:43:00.461Z,99600
2023-04-11T12:44:00.436Z,99600
2023-04-11T12:45:00.405Z,99600
2023-04-11T12:46:00.392Z,99600
2023-04-11T12:47:00.558Z,99600